sensor_id;sensor_type;location;lat;lon;timestamp;P1;durP1;ratioP1;P2;durP2;ratioP2
22863;SDS011;11599;49.882;8.680;2023-05-10T00:01:28;0.87;;;0.40;;
22863;SDS011;11599;49.882;8.680;2023-05-10T00:11:49;0.40;;;0.40;;
22863;SDS011;11599;49.882;8.680;2023-05-10T00:22:12;0.40;;;0.40;;
22863;SDS011;11599;49.882;8.680;2023-05-10T00:32:33;0.50;;;0.33;;
22863;SDS011;11599;49.882;8.680;2023-05-10T00:42:56;3.20;;;0.40;;
22863;SDS011;11599;49.882;8.680;2023-05-10T00:53:18;0.90;;;0.70;;
22863;SDS011;11599;49.882;8.680;2023-05-10T01:03:42;1.57;;;0.90;;
22863;SDS011;11599;49.882;8.680;2023-05-10T01:14:04;1.77;;;0.80;;
22863;SDS011;11599;49.882;8.680;2023-05-10T01:35:26;1.23;;;0.90;;
22863;SDS011;11599;49.882;8.680;2023-05-10T01:45:54;2.63;;;1.00;;
22863;SDS011;11599;49.882;8.680;2023-05-10T01:56:20;2.17;;;1.23;;
22863;SDS011;11599;49.882;8.680;2023-05-10T02:06:45;7.43;;;1.40;;
22863;SDS011;11599;49.882;8.680;2023-05-10T02:17:09;6.50;;;1.80;;
22863;SDS011;11599;49.882;8.680;2023-05-10T02:27:31;2.73;;;1.83;;
22863;SDS011;11599;49.882;8.680;2023-05-10T02:37:54;2.13;;;1.90;;
22863;SDS011;11599;49.882;8.680;2023-05-10T02:48:16;2.80;;;1.87;;
22863;SDS011;11599;49.882;8.680;2023-05-10T02:58:39;3.03;;;2.10;;
22863;SDS011;11599;49.882;8.680;2023-05-10T03:09:01;2.33;;;1.80;;
22863;SDS011;11599;49.882;8.680;2023-05-10T03:19:26;2.93;;;2.00;;
22863;SDS011;11599;49.882;8.680;2023-05-10T03:29:48;2.90;;;2.20;;
22863;SDS011;11599;49.882;8.680;2023-05-10T03:40:13;7.80;;;2.30;;
22863;SDS011;11599;49.882;8.680;2023-05-10T03:50:37;8.03;;;1.83;;
22863;SDS011;11599;49.882;8.680;2023-05-10T04:01:00;4.77;;;2.03;;
22863;SDS011;11599;49.882;8.680;2023-05-10T04:11:21;4.63;;;2.10;;
22863;SDS011;11599;49.882;8.680;2023-05-10T04:21:46;2.80;;;2.13;;
22863;SDS011;11599;49.882;8.680;2023-05-10T04:32:08;4.60;;;2.27;;
22863;SDS011;11599;49.882;8.680;2023-05-10T04:42:31;4.87;;;2.60;;
22863;SDS011;11599;49.882;8.680;2023-05-10T04:52:53;5.07;;;3.00;;
22863;SDS011;11599;49.882;8.680;2023-05-10T05:03:17;3.77;;;2.77;;
22863;SDS011;11599;49.882;8.680;2023-05-10T05:13:38;8.33;;;2.93;;
22863;SDS011;11599;49.882;8.680;2023-05-10T05:24:01;6.33;;;2.77;;
22863;SDS011;11599;49.882;8.680;2023-05-10T05:34:23;5.23;;;2.53;;
22863;SDS011;11599;49.882;8.680;2023-05-10T05:44:45;8.43;;;2.90;;
22863;SDS011;11599;49.882;8.680;2023-05-10T05:55:07;5.88;;;2.95;;
22863;SDS011;11599;49.882;8.680;2023-05-10T06:05:32;6.23;;;3.00;;
22863;SDS011;11599;49.882;8.680;2023-05-10T06:15:54;9.27;;;2.80;;
22863;SDS011;11599;49.882;8.680;2023-05-10T06:26:16;6.40;;;3.33;;
22863;SDS011;11599;49.882;8.680;2023-05-10T06:36:38;9.70;;;3.60;;
22863;SDS011;11599;49.882;8.680;2023-05-10T06:47:02;5.72;;;3.45;;
22863;SDS011;11599;49.882;8.680;2023-05-10T06:57:23;5.82;;;3.35;;
22863;SDS011;11599;49.882;8.680;2023-05-10T07:07:47;6.50;;;3.60;;
22863;SDS011;11599;49.882;8.680;2023-05-10T07:18:08;6.67;;;4.13;;
22863;SDS011;11599;49.882;8.680;2023-05-10T07:28:31;5.87;;;4.00;;
22863;SDS011;11599;49.882;8.680;2023-05-10T07:38:53;12.65;;;4.28;;
22863;SDS011;11599;49.882;8.680;2023-05-10T07:49:16;6.10;;;3.73;;
22863;SDS011;11599;49.882;8.680;2023-05-10T07:59:37;8.83;;;3.50;;
22863;SDS011;11599;49.882;8.680;2023-05-10T08:10:00;4.63;;;3.10;;
22863;SDS011;11599;49.882;8.680;2023-05-10T08:20:25;4.70;;;2.63;;
22863;SDS011;11599;49.882;8.680;2023-05-10T08:30:49;5.13;;;2.40;;
22863;SDS011;11599;49.882;8.680;2023-05-10T08:41:10;8.57;;;3.50;;
22863;SDS011;11599;49.882;8.680;2023-05-10T08:51:35;9.80;;;3.30;;
22863;SDS011;11599;49.882;8.680;2023-05-10T09:01:57;5.40;;;3.00;;
22863;SDS011;11599;49.882;8.680;2023-05-10T09:12:20;5.22;;;2.70;;
22863;SDS011;11599;49.882;8.680;2023-05-10T09:22:41;4.43;;;2.00;;
22863;SDS011;11599;49.882;8.680;2023-05-10T09:33:04;3.97;;;1.40;;
22863;SDS011;11599;49.882;8.680;2023-05-10T09:43:26;3.00;;;1.17;;
22863;SDS011;11599;49.882;8.680;2023-05-10T09:53:49;2.20;;;0.80;;
22863;SDS011;11599;49.882;8.680;2023-05-10T10:04:29;3.73;;;0.90;;
22863;SDS011;11599;49.882;8.680;2023-05-10T10:14:52;3.43;;;0.70;;
22863;SDS011;11599;49.882;8.680;2023-05-10T10:25:15;1.10;;;0.93;;
22863;SDS011;11599;49.882;8.680;2023-05-10T10:35:38;3.30;;;1.00;;
22863;SDS011;11599;49.882;8.680;2023-05-10T10:46:09;2.33;;;0.90;;
22863;SDS011;11599;49.882;8.680;2023-05-10T10:56:32;3.33;;;1.00;;
22863;SDS011;11599;49.882;8.680;2023-05-10T11:07:02;5.03;;;0.93;;
22863;SDS011;11599;49.882;8.680;2023-05-10T11:17:38;2.30;;;0.70;;
22863;SDS011;11599;49.882;8.680;2023-05-10T11:28:00;3.57;;;0.80;;
22863;SDS011;11599;49.882;8.680;2023-05-10T11:38:25;2.65;;;0.88;;
22863;SDS011;11599;49.882;8.680;2023-05-10T11:48:47;2.60;;;0.90;;
22863;SDS011;11599;49.882;8.680;2023-05-10T11:59:13;0.80;;;0.60;;
22863;SDS011;11599;49.882;8.680;2023-05-10T12:09:35;2.25;;;0.70;;
22863;SDS011;11599;49.882;8.680;2023-05-10T12:19:59;2.77;;;0.70;;
22863;SDS011;11599;49.882;8.680;2023-05-10T12:30:34;2.33;;;0.70;;
22863;SDS011;11599;49.882;8.680;2023-05-10T12:40:58;0.93;;;0.63;;
22863;SDS011;11599;49.882;8.680;2023-05-10T12:51:19;1.33;;;0.50;;
22863;SDS011;11599;49.882;8.680;2023-05-10T13:01:44;0.80;;;0.60;;
22863;SDS011;11599;49.882;8.680;2023-05-10T13:12:05;3.00;;;0.70;;
22863;SDS011;11599;49.882;8.680;2023-05-10T13:22:28;1.58;;;0.80;;
22863;SDS011;11599;49.882;8.680;2023-05-10T13:32:50;2.42;;;1.00;;
22863;SDS011;11599;49.882;8.680;2023-05-10T13:43:13;4.72;;;1.00;;
22863;SDS011;11599;49.882;8.680;2023-05-10T13:53:35;4.32;;;0.77;;
22863;SDS011;11599;49.882;8.680;2023-05-10T14:03:59;4.60;;;0.80;;
22863;SDS011;11599;49.882;8.680;2023-05-10T14:14:23;1.27;;;0.80;;
22863;SDS011;11599;49.882;8.680;2023-05-10T14:24:46;2.60;;;0.80;;
22863;SDS011;11599;49.882;8.680;2023-05-10T14:35:08;2.50;;;1.00;;
22863;SDS011;11599;49.882;8.680;2023-05-10T14:45:31;7.03;;;1.07;;
22863;SDS011;11599;49.882;8.680;2023-05-10T14:55:52;3.93;;;0.90;;
22863;SDS011;11599;49.882;8.680;2023-05-10T15:06:15;4.32;;;1.00;;
22863;SDS011;11599;49.882;8.680;2023-05-10T15:16:37;1.75;;;0.70;;
22863;SDS011;11599;49.882;8.680;2023-05-10T15:26:59;7.07;;;0.90;;
22863;SDS011;11599;49.882;8.680;2023-05-10T15:37:21;2.70;;;0.70;;
22863;SDS011;11599;49.882;8.680;2023-05-10T15:47:46;3.50;;;0.80;;
22863;SDS011;11599;49.882;8.680;2023-05-10T15:58:08;3.67;;;0.70;;
22863;SDS011;11599;49.882;8.680;2023-05-10T16:08:30;2.60;;;1.00;;
22863;SDS011;11599;49.882;8.680;2023-05-10T16:18:52;3.20;;;0.77;;
22863;SDS011;11599;49.882;8.680;2023-05-10T16:29:16;5.35;;;0.70;;
22863;SDS011;11599;49.882;8.680;2023-05-10T16:39:37;2.13;;;0.80;;
22863;SDS011;11599;49.882;8.680;2023-05-10T16:50:00;4.43;;;0.93;;
22863;SDS011;11599;49.882;8.680;2023-05-10T17:00:21;9.25;;;0.80;;
22863;SDS011;11599;49.882;8.680;2023-05-10T17:10:44;1.90;;;0.52;;
22863;SDS011;11599;49.882;8.680;2023-05-10T17:21:07;1.80;;;0.50;;
22863;SDS011;11599;49.882;8.680;2023-05-10T17:31:30;3.00;;;0.60;;
22863;SDS011;11599;49.882;8.680;2023-05-10T17:41:52;1.60;;;0.50;;
22863;SDS011;11599;49.882;8.680;2023-05-10T17:52:14;1.13;;;0.50;;
22863;SDS011;11599;49.882;8.680;2023-05-10T18:02:38;3.20;;;0.60;;
22863;SDS011;11599;49.882;8.680;2023-05-10T18:13:02;4.40;;;0.80;;
22863;SDS011;11599;49.882;8.680;2023-05-10T18:23:27;3.20;;;0.70;;
22863;SDS011;11599;49.882;8.680;2023-05-10T18:33:50;2.57;;;0.70;;
22863;SDS011;11599;49.882;8.680;2023-05-10T18:44:11;5.53;;;0.90;;
22863;SDS011;11599;49.882;8.680;2023-05-10T18:54:35;3.80;;;0.90;;
22863;SDS011;11599;49.882;8.680;2023-05-10T19:04:56;3.83;;;0.90;;
22863;SDS011;11599;49.882;8.680;2023-05-10T19:15:20;3.90;;;0.90;;
22863;SDS011;11599;49.882;8.680;2023-05-10T19:25:44;5.05;;;0.85;;
22863;SDS011;11599;49.882;8.680;2023-05-10T19:36:07;3.60;;;0.80;;
22863;SDS011;11599;49.882;8.680;2023-05-10T19:46:28;4.32;;;0.90;;
22863;SDS011;11599;49.882;8.680;2023-05-10T19:56:52;6.30;;;0.80;;
22863;SDS011;11599;49.882;8.680;2023-05-10T20:07:14;4.87;;;0.80;;
22863;SDS011;11599;49.882;8.680;2023-05-10T20:17:38;4.70;;;1.60;;
22863;SDS011;11599;49.882;8.680;2023-05-10T20:27:59;1.73;;;1.00;;
22863;SDS011;11599;49.882;8.680;2023-05-10T20:38:22;3.13;;;1.10;;
22863;SDS011;11599;49.882;8.680;2023-05-10T20:48:44;2.80;;;1.10;;
22863;SDS011;11599;49.882;8.680;2023-05-10T20:59:06;5.40;;;1.40;;
22863;SDS011;11599;49.882;8.680;2023-05-10T21:09:28;2.13;;;1.10;;
22863;SDS011;11599;49.882;8.680;2023-05-10T21:19:51;5.63;;;0.88;;
22863;SDS011;11599;49.882;8.680;2023-05-10T21:30:12;4.70;;;0.90;;
22863;SDS011;11599;49.882;8.680;2023-05-10T21:40:35;3.73;;;0.97;;
22863;SDS011;11599;49.882;8.680;2023-05-10T21:50:57;2.25;;;0.80;;
22863;SDS011;11599;49.882;8.680;2023-05-10T22:01:20;2.00;;;0.80;;
22863;SDS011;11599;49.882;8.680;2023-05-10T22:11:43;2.20;;;0.70;;
22863;SDS011;11599;49.882;8.680;2023-05-10T22:22:06;1.00;;;0.70;;
22863;SDS011;11599;49.882;8.680;2023-05-10T22:32:28;3.03;;;0.93;;
22863;SDS011;11599;49.882;8.680;2023-05-10T22:42:50;2.10;;;0.70;;
22863;SDS011;11599;49.882;8.680;2023-05-10T22:53:12;1.27;;;0.70;;
22863;SDS011;11599;49.882;8.680;2023-05-10T23:03:35;2.13;;;0.60;;
22863;SDS011;11599;49.882;8.680;2023-05-10T23:13:56;1.87;;;0.70;;
22863;SDS011;11599;49.882;8.680;2023-05-10T23:24:19;2.90;;;0.90;;
22863;SDS011;11599;49.882;8.680;2023-05-10T23:34:40;2.20;;;0.80;;
22863;SDS011;11599;49.882;8.680;2023-05-10T23:45:04;1.27;;;0.70;;
22863;SDS011;11599;49.882;8.680;2023-05-10T23:55:25;2.97;;;0.90;;
